Terminal Aerodrome Forecast
Issued by NWS Flagstaff, AZ

Home | Current Version | Previous Version | Text Only | Print | Product List | Glossary On
Versions: 1 2 3 4 5 6 7 8 9 10 11 12 13
000
FTUS45 KFGZ 231734
TAFINW
TAF
KINW 231734Z 2318/2418 24010G20KT P6SM VCSH BKN035 OVC100
     FM232100 25020G28KT P6SM -SHRA BKN045
     FM240600 25015KT P6SM SCT050=

USA.gov is the U.S. government's official web portal to all federal, state and local government web resources and services.